.
WxDataArchive / Data Records for 2013-02-09
2013-02-08 February 2013 2013-02-10

Data Records for Saturday, 09 February 2013

Time	Temp	Chill	HIndex	Humid	Dewpt	 Wind 	HiWind	WindDir	Rain 	Barom 
-----	----	-----	------	-----	-----	------	------	-------	-----	----- 
00:00	21.0	21.0	21.0	81	16.1	0	0	---	0.00	30.367 
00:05	20.8	20.8	20.8	82	16.2	0	0	---	0.00	30.367 
00:10	20.8	20.8	20.8	82	16.2	0	0	---	0.00	30.367 
00:15	20.5	20.5	20.5	83	16.2	0	0	---	0.00	30.371 
00:20	20.2	20.2	20.2	83	15.9	0	0	---	0.00	30.371 
00:25	20.0	20.0	20.0	83	15.7	0	0	---	0.00	30.371 
00:30	19.9	19.9	19.9	84	15.9	0	0	---	0.00	30.381 
00:35	19.9	19.9	19.9	84	15.9	0	0	---	0.00	30.381 
00:40	19.5	19.5	19.5	84	15.5	0	0	---	0.00	30.381 
00:45	19.2	19.2	19.2	84	15.2	0	0	---	0.00	30.382 
00:50	19.1	19.1	19.1	84	15.1	0	0	---	0.00	30.382 
00:55	18.9	18.9	18.9	84	14.9	0	0	---	0.00	30.382 
01:00	18.8	18.8	18.8	85	15.1	0	0	---	0.00	30.385 
01:05	18.4	18.4	18.4	85	14.7	0	0	---	0.00	30.385 
01:10	18.3	18.3	18.3	85	14.6	0	0	---	0.00	30.385 
01:15	18.1	18.1	18.1	85	14.4	0	0	---	0.00	30.384 
01:20	18.1	18.1	18.1	85	14.4	0	0	---	0.00	30.384 
01:25	18.0	18.0	18.0	86	14.5	0	0	---	0.00	30.384 
01:30	17.8	17.8	17.8	86	14.3	0	0	---	0.00	30.385 
01:35	17.7	17.7	17.7	86	14.2	0	0	---	0.00	30.385 
01:40	17.5	17.5	17.5	86	14.0	0	0	---	0.00	30.385 
01:45	17.3	17.3	17.3	86	13.8	0	0	---	0.00	30.386 
01:50	17.3	17.3	17.3	86	13.8	0	0	---	0.00	30.386 
01:55	17.3	17.3	17.3	86	13.8	0	0	---	0.00	30.386 
02:00	17.2	17.2	17.2	86	13.7	0	0	---	0.00	30.386 
02:05	17.2	17.2	17.2	87	14.0	0	0	---	0.00	30.386 
02:10	17.2	17.2	17.2	87	14.0	0	0	---	0.00	30.386 
02:15	17.2	17.2	17.2	87	14.0	0	0	---	0.00	30.392 
02:20	17.2	17.2	17.2	87	14.0	0	0	---	0.00	30.392 
02:25	17.2	17.2	17.2	87	14.0	0	0	---	0.00	30.392 
02:30	17.0	17.0	17.0	87	13.8	0	0	---	0.00	30.398 
02:35	16.9	16.9	16.9	87	13.7	0	0	---	0.00	30.398 
02:40	16.7	16.7	16.7	87	13.5	0	0	---	0.00	30.398 
02:45	16.5	16.5	16.5	87	13.3	0	0	---	0.00	30.400 
02:50	16.4	16.4	16.4	87	13.2	0	0	---	0.00	30.400 
02:55	16.2	16.2	16.2	87	13.0	0	0	---	0.00	30.400 
03:00	16.2	16.2	16.2	87	13.0	0	0	---	0.00	30.403 
03:05	16.2	16.2	16.2	87	13.0	0	0	---	0.00	30.403 
03:10	16.1	16.1	16.1	87	12.9	0	0	---	0.00	30.403 
03:15	15.9	15.9	15.9	87	12.7	0	0	---	0.00	30.403 
03:20	16.1	16.1	16.1	88	13.2	0	0	---	0.00	30.403 
03:25	16.1	16.1	16.1	88	13.2	0	0	---	0.00	30.403 
03:30	16.1	16.1	16.1	88	13.2	0	0	---	0.00	30.405 
03:35	16.1	16.1	16.1	88	13.2	0	0	---	0.00	30.405 
03:40	16.1	16.1	16.1	88	13.2	0	0	---	0.00	30.405 
03:45	16.2	16.2	16.2	88	13.3	0	0	---	0.00	30.401 
03:50	16.4	16.4	16.4	88	13.5	0	0	---	0.00	30.401 
03:55	16.4	16.4	16.4	88	13.5	0	0	---	0.00	30.401 
04:00	16.4	16.4	16.4	88	13.5	0	0	---	0.00	30.398 
04:05	16.5	16.5	16.5	89	13.8	0	0	---	0.00	30.398 
04:10	17.0	17.0	17.0	89	14.3	0	0	---	0.00	30.398 
04:15	17.3	17.3	17.3	89	14.6	0	0	---	0.00	30.399 
04:20	17.8	17.8	17.8	89	15.1	0	1	270	0.00	30.399 
04:25	18.3	18.3	18.3	89	15.6	0	1	270	0.00	30.399 
04:30	18.6	18.6	18.6	88	15.6	0	2	270	0.00	30.395 
04:35	18.9	18.9	18.9	88	15.9	0	2	270	0.00	30.395 
04:40	19.2	19.2	19.2	86	15.7	1	3	270	0.00	30.395 
04:45	19.2	19.2	19.2	85	15.4	0	2	270	0.00	30.401 
04:50	19.2	19.2	19.2	84	15.2	0	2	270	0.00	30.401 
04:55	19.1	19.1	19.1	84	15.1	0	1	270	0.00	30.401 
05:00	19.1	19.1	19.1	83	14.8	0	1	270	0.00	30.408 
05:05	18.8	18.8	18.8	83	14.5	0	0	---	0.00	30.408 
05:10	18.6	18.6	18.6	83	14.3	0	0	---	0.00	30.408 
05:15	18.3	18.3	18.3	83	14.0	0	0	---	0.00	30.417 
05:20	18.1	18.1	18.1	83	13.8	0	1	270	0.00	30.417 
05:25	18.0	18.0	18.0	83	13.7	0	0	---	0.00	30.417 
05:30	17.8	17.8	17.8	83	13.5	0	0	---	0.00	30.421 
05:35	17.7	17.7	17.7	83	13.4	0	0	---	0.00	30.421 
05:40	17.3	17.3	17.3	83	13.0	0	0	---	0.00	30.421 
05:45	17.2	17.2	17.2	83	12.9	0	0	---	0.00	30.423 
05:50	16.9	16.9	16.9	83	12.6	0	0	---	0.00	30.423 
05:55	16.7	16.7	16.7	83	12.5	0	0	---	0.00	30.423 
06:00	16.4	16.4	16.4	83	12.2	0	0	---	0.00	30.435 
06:05	16.2	16.2	16.2	83	12.0	0	0	---	0.00	30.435 
06:10	15.9	15.9	15.9	83	11.7	0	0	---	0.00	30.435 
06:15	15.6	15.6	15.6	83	11.4	0	0	---	0.00	30.433 
06:20	15.4	15.4	15.4	83	11.2	0	0	---	0.00	30.433 
06:25	15.2	15.2	15.2	84	11.3	0	0	---	0.00	30.433 
06:30	15.1	15.1	15.1	84	11.2	0	0	---	0.00	30.425 
06:35	15.1	15.1	15.1	84	11.2	0	0	---	0.00	30.425 
06:40	14.9	14.9	14.9	84	11.0	0	0	---	0.00	30.425 
06:45	14.9	14.9	14.9	84	11.0	0	0	---	0.00	30.434 
06:50	14.8	14.8	14.8	84	10.9	0	0	---	0.00	30.434 
06:55	14.6	14.6	14.6	84	10.7	0	0	---	0.00	30.434 
07:00	14.4	14.4	14.4	84	10.5	0	0	---	0.00	30.439 
07:05	14.1	14.1	14.1	84	10.2	0	0	---	0.00	30.439 
07:10	14.0	14.0	14.0	84	10.1	0	0	---	0.00	30.439 
07:15	14.0	14.0	14.0	85	10.3	0	0	---	0.00	30.442 
07:20	13.8	13.8	13.8	84	9.9	0	0	---	0.00	30.442 
07:25	13.6	13.6	13.6	85	9.9	0	0	---	0.00	30.442 
07:30	13.6	13.6	13.6	85	9.9	0	0	---	0.00	30.449 
07:35	13.5	13.5	13.5	85	9.8	0	0	---	0.00	30.449 
07:40	13.3	13.3	13.3	85	9.7	0	0	---	0.00	30.449 
07:45	13.3	13.3	13.3	85	9.7	0	0	---	0.00	30.456 
07:50	13.1	13.1	13.1	85	9.5	0	0	---	0.00	30.456 
07:55	13.3	13.3	13.3	86	9.9	0	0	---	0.00	30.456 
08:00	13.5	13.5	13.5	86	10.1	0	0	---	0.00	30.454 
08:05	13.5	13.5	13.5	86	10.1	0	0	---	0.00	30.454 
08:10	13.5	13.5	13.5	86	10.1	0	0	---	0.00	30.454 
08:15	13.5	13.5	13.5	86	10.1	0	0	---	0.00	30.458 
08:20	13.8	13.8	13.8	87	10.7	0	0	---	0.00	30.458 
08:25	14.6	14.6	14.6	88	11.7	0	1	270	0.00	30.458 
08:30	16.2	16.2	16.2	89	13.5	0	1	270	0.00	30.460 
08:35	17.5	17.5	17.5	88	14.6	0	2	270	0.00	30.460 
08:40	18.4	18.4	18.4	87	15.2	0	3	270	0.00	30.460 
08:45	19.2	19.2	19.2	85	15.4	2	4	90	0.00	30.460 
08:50	19.7	19.7	19.7	84	15.7	1	5	68	0.00	30.460 
08:55	20.3	20.3	20.3	84	16.3	0	1	68	0.00	30.460 
09:00	21.0	21.0	21.0	82	16.4	1	3	68	0.00	30.467 
09:05	21.4	21.4	21.4	80	16.2	2	4	68	0.00	30.467 
09:10	21.9	21.9	21.9	79	16.4	1	3	68	0.00	30.467 
09:15	22.1	22.1	22.1	77	16.0	2	4	68	0.00	30.460 
09:20	22.4	22.4	22.4	77	16.3	2	5	68	0.00	30.460 
09:25	22.9	22.9	22.9	76	16.5	1	4	68	0.00	30.460 
09:30	23.5	23.5	23.5	76	17.1	1	3	68	0.00	30.463 
09:35	23.9	23.9	23.9	75	17.2	1	3	68	0.00	30.463 
09:40	24.5	24.5	24.5	72	16.8	1	4	68	0.00	30.463 
09:45	24.5	24.5	24.5	71	16.5	2	6	68	0.00	30.463 
09:50	24.7	24.7	24.7	72	17.0	1	3	90	0.00	30.463 
09:55	25.3	25.3	25.3	71	17.2	1	3	112	0.00	30.463 
10:00	25.8	25.8	25.8	69	17.1	1	4	112	0.00	30.452 
10:05	25.7	25.7	25.7	69	17.0	2	6	112	0.00	30.452 
10:10	25.7	25.7	25.7	70	17.3	1	4	135	0.00	30.452 
10:15	25.8	25.8	25.8	68	16.7	3	7	112	0.00	30.451 
10:20	25.8	25.8	25.8	69	17.1	2	5	90	0.00	30.451 
10:25	26.3	26.3	26.3	69	17.5	1	3	90	0.00	30.451 
10:30	26.7	26.7	26.7	69	17.9	1	3	90	0.00	30.446 
10:35	27.2	27.2	27.2	68	18.1	1	5	90	0.00	30.446 
10:40	27.5	27.5	27.5	67	18.0	1	3	112	0.00	30.446 
10:45	27.5	27.5	27.5	65	17.3	2	4	90	0.00	30.450 
10:50	27.3	27.3	27.3	65	17.1	2	6	90	0.00	30.450 
10:55	27.3	27.3	27.3	67	17.8	1	4	90	0.00	30.450 
11:00	27.6	27.6	27.6	66	17.8	2	4	90	0.00	30.450 
11:05	27.9	27.9	27.9	66	18.0	1	4	112	0.00	30.450 
11:10	27.8	27.8	27.8	65	17.6	2	5	90	0.00	30.450 
11:15	27.9	27.9	27.9	65	17.7	1	4	112	0.00	30.450 
11:20	28.2	28.2	28.2	64	17.6	1	6	90	0.00	30.450 
11:25	28.2	28.2	28.2	65	18.0	1	4	112	0.00	30.450 
11:30	28.5	28.5	28.5	64	17.9	1	4	112	0.00	30.448 
11:35	28.8	28.8	28.8	64	18.2	1	4	112	0.00	30.448 
11:40	29.0	29.0	29.0	64	18.4	2	6	90	0.00	30.448 
11:45	28.8	28.8	28.8	63	17.8	2	6	90	0.00	30.445 
11:50	28.5	28.5	28.5	64	17.9	2	6	90	0.00	30.445 
11:55	28.5	28.5	28.5	65	18.3	2	6	90	0.00	30.445 
12:00	28.4	28.4	28.4	66	18.5	2	4	90	0.00	30.445 
12:05	28.5	28.5	28.5	66	18.6	2	7	90	0.00	30.445 
12:10	28.5	28.5	28.5	67	19.0	3	6	90	0.00	30.445 
12:15	28.5	28.5	28.5	65	18.3	1	4	90	0.00	30.445 
12:20	28.8	28.8	28.8	66	18.9	1	2	90	0.00	30.445 
12:25	29.0	29.0	29.0	65	18.7	2	5	112	0.00	30.445 
12:30	29.1	29.1	29.1	64	18.5	2	6	90	0.00	30.439 
12:35	29.3	29.3	29.3	64	18.7	1	5	112	0.00	30.439 
12:40	29.4	29.4	29.4	64	18.8	1	3	90	0.00	30.439 
12:45	29.5	29.5	29.5	64	18.8	2	5	90	0.00	30.432 
12:50	29.4	29.4	29.4	64	18.8	2	6	90	0.00	30.432 
12:55	29.5	29.5	29.5	65	19.2	1	4	90	0.00	30.432 
13:00	29.7	29.7	29.7	65	19.4	2	6	90	0.00	30.418 
13:05	30.0	30.0	30.0	65	19.7	1	5	90	0.00	30.418 
13:10	30.3	30.3	30.3	66	20.3	1	4	112	0.00	30.418 
13:15	30.7	30.7	30.7	65	20.3	1	3	112	0.00	30.416 
13:20	30.7	30.7	30.7	65	20.3	2	6	112	0.00	30.416 
13:25	30.7	30.7	30.7	65	20.3	1	3	112	0.00	30.416 
13:30	31.0	31.0	31.0	65	20.6	2	4	112	0.00	30.406 
13:35	30.9	30.9	30.9	63	19.8	1	5	68	0.00	30.406 
13:40	31.0	31.0	31.0	65	20.6	2	5	90	0.00	30.406 
13:45	31.2	31.2	31.2	65	20.8	1	4	112	0.00	30.406 
13:50	31.5	31.5	31.5	65	21.1	1	4	112	0.00	30.406 
13:55	31.9	31.9	31.9	63	20.8	1	3	90	0.00	30.406 
14:00	31.9	31.9	31.9	62	20.4	1	5	90	0.00	30.405 
14:05	31.9	31.9	31.9	61	20.0	1	4	90	0.00	30.405 
14:10	31.9	31.9	31.9	61	20.0	2	4	112	0.00	30.405 
14:15	31.9	31.9	31.9	63	20.8	1	4	90	0.00	30.397 
14:20	31.9	31.9	31.9	62	20.4	3	6	90	0.00	30.397 
14:25	31.9	31.9	31.9	62	20.4	2	6	90	0.00	30.397 
14:30	32.1	32.1	32.1	63	20.9	2	5	112	0.00	30.384 
14:35	32.1	32.1	32.1	62	20.6	3	9	90	0.00	30.384 
14:40	32.1	32.1	32.1	63	20.9	3	7	90	0.00	30.384 
14:45	32.1	28.2	32.1	63	20.9	4	9	90	0.00	30.372 
14:50	32.1	32.1	32.1	63	20.9	2	5	68	0.00	30.372 
14:55	32.2	32.2	32.2	63	21.0	2	5	90	0.00	30.372 
15:00	32.4	32.4	32.4	62	20.9	2	6	68	0.00	30.368 
15:05	32.4	32.4	32.4	62	20.9	2	5	90	0.00	30.368 
15:10	32.5	32.5	32.5	63	21.3	2	5	90	0.00	30.368 
15:15	32.7	32.7	32.7	63	21.5	2	7	90	0.00	30.354 
15:20	32.8	32.8	32.8	62	21.2	2	5	90	0.00	30.354 
15:25	32.8	32.8	32.8	61	20.9	3	7	90	0.00	30.354 
15:30	32.9	32.9	32.9	60	20.6	2	5	90	0.00	30.354 
15:35	32.9	32.9	32.9	60	20.6	2	5	68	0.00	30.354 
15:40	32.8	32.8	32.8	61	20.9	2	5	90	0.00	30.354 
15:45	32.8	32.8	32.8	61	20.9	2	5	90	0.00	30.345 
15:50	32.7	32.7	32.7	62	21.1	2	6	112	0.00	30.345 
15:55	32.4	32.4	32.4	62	20.9	2	10	112	0.00	30.345 
16:00	32.4	32.4	32.4	61	20.5	2	6	112	0.00	30.348 
16:05	32.4	32.4	32.4	62	20.9	2	5	90	0.00	30.348 
16:10	32.2	32.2	32.2	61	20.3	2	5	112	0.00	30.348 
16:15	32.1	32.1	32.1	61	20.2	2	5	112	0.00	30.338 
16:20	32.1	32.1	32.1	62	20.6	1	4	135	0.00	30.338 
16:25	32.1	32.1	32.1	60	19.8	2	6	90	0.00	30.338 
16:30	32.2	32.2	32.2	61	20.3	1	3	112	0.00	30.339 
16:35	32.2	32.2	32.2	61	20.3	1	4	135	0.00	30.339 
16:40	32.4	32.4	32.4	62	20.9	1	4	90	0.00	30.339 
16:45	32.4	32.4	32.4	62	20.9	1	4	135	0.00	30.337 
16:50	32.2	32.2	32.2	62	20.7	2	4	90	0.00	30.337 
16:55	32.4	32.4	32.4	62	20.9	1	3	112	0.00	30.337 
17:00	32.4	32.4	32.4	62	20.9	1	4	90	0.00	30.339 
17:05	32.2	32.2	32.2	62	20.7	1	4	112	0.00	30.339 
17:10	32.1	32.1	32.1	62	20.6	1	3	90	0.00	30.339 
17:15	31.9	31.9	31.9	63	20.8	0	2	112	0.00	30.341 
17:20	31.8	31.8	31.8	64	21.0	0	2	112	0.00	30.341 
17:25	31.5	31.5	31.5	64	20.7	0	2	112	0.00	30.341 
17:30	31.5	31.5	31.5	65	21.1	0	3	112	0.00	30.338 
17:35	31.3	31.3	31.3	65	20.9	0	2	112	0.00	30.338 
17:40	31.2	31.2	31.2	66	21.2	0	1	112	0.00	30.338 
17:45	31.0	31.0	31.0	66	21.0	0	3	112	0.00	30.340 
17:50	30.9	30.9	30.9	67	21.3	0	1	112	0.00	30.340 
17:55	30.7	30.7	30.7	67	21.1	0	2	112	0.00	30.340 
18:00	30.6	30.6	30.6	67	21.0	1	2	112	0.00	30.342 
18:05	30.6	30.6	30.6	67	21.0	0	2	112	0.00	30.342 
18:10	30.3	30.3	30.3	68	21.0	0	1	112	0.00	30.342 
18:15	30.1	30.1	30.1	68	20.8	0	1	112	0.00	30.342 
18:20	29.8	29.8	29.8	69	20.9	0	1	112	0.00	30.342 
18:25	29.7	29.7	29.7	70	21.1	1	2	112	0.00	30.342 
18:30	29.5	29.5	29.5	70	20.9	0	2	112	0.00	30.334 
18:35	29.4	29.4	29.4	71	21.2	0	2	112	0.00	30.334 
18:40	29.3	29.3	29.3	71	21.1	0	1	112	0.00	30.334 
18:45	29.0	29.0	29.0	72	21.1	0	2	112	0.00	30.335 
18:50	28.8	28.8	28.8	73	21.3	0	1	112	0.00	30.335 
18:55	28.7	28.7	28.7	73	21.2	1	3	112	0.00	30.335 
19:00	28.8	28.8	28.8	73	21.3	1	2	112	0.00	30.330 
19:05	28.7	28.7	28.7	74	21.5	1	3	112	0.00	30.330 
19:10	28.7	28.7	28.7	74	21.5	1	4	112	0.00	30.330 
19:15	28.7	28.7	28.7	74	21.5	1	2	112	0.00	30.328 
19:20	28.5	28.5	28.5	74	21.3	1	2	112	0.00	30.328 
19:25	28.4	28.4	28.4	74	21.2	1	2	112	0.00	30.328 
19:30	28.2	28.2	28.2	74	21.0	1	2	112	0.00	30.321 
19:35	28.2	28.2	28.2	74	21.0	1	2	112	0.00	30.321 
19:40	28.2	28.2	28.2	74	21.0	1	3	112	0.00	30.321 
19:45	28.1	28.1	28.1	74	20.9	0	2	112	0.00	30.321 
19:50	27.9	27.9	27.9	75	21.0	0	2	112	0.00	30.321 
19:55	27.8	27.8	27.8	75	20.9	0	1	112	0.00	30.321 
20:00	27.6	27.6	27.6	75	20.7	0	2	112	0.00	30.317 
20:05	27.5	27.5	27.5	76	20.9	0	2	112	0.00	30.317 
20:10	27.3	27.3	27.3	76	20.8	0	1	112	0.00	30.317 
20:15	27.2	27.2	27.2	77	21.0	0	1	112	0.00	30.307 
20:20	27.2	27.2	27.2	77	21.0	0	1	112	0.00	30.307 
20:25	27.0	27.0	27.0	77	20.8	0	2	112	0.00	30.307 
20:30	27.0	27.0	27.0	77	20.8	0	1	112	0.00	30.306 
20:35	26.9	26.9	26.9	77	20.7	0	1	112	0.00	30.306 
20:40	26.9	26.9	26.9	77	20.7	0	3	112	0.00	30.306 
20:45	26.9	26.9	26.9	77	20.7	1	2	112	0.00	30.306 
20:50	26.9	26.9	26.9	77	20.7	0	2	112	0.00	30.306 
20:55	26.9	26.9	26.9	77	20.7	0	2	112	0.00	30.306 
21:00	27.0	27.0	27.0	77	20.8	1	2	112	0.00	30.306 
21:05	27.0	27.0	27.0	77	20.8	1	3	112	0.00	30.306 
21:10	26.9	26.9	26.9	77	20.7	0	2	112	0.00	30.306 
21:15	26.9	26.9	26.9	77	20.7	0	1	112	0.00	30.297 
21:20	26.7	26.7	26.7	77	20.5	0	2	112	0.00	30.297 
21:25	26.6	26.6	26.6	77	20.4	1	2	112	0.00	30.297 
21:30	26.6	26.6	26.6	77	20.4	0	1	112	0.00	30.292 
21:35	26.4	26.4	26.4	78	20.5	0	2	112	0.00	30.292 
21:40	26.3	26.3	26.3	78	20.4	1	2	112	0.00	30.292 
21:45	26.1	26.1	26.1	78	20.2	0	2	112	0.00	30.289 
21:50	26.1	26.1	26.1	79	20.5	1	2	112	0.00	30.289 
21:55	26.0	26.0	26.0	79	20.4	0	1	112	0.00	30.289 
22:00	25.8	25.8	25.8	79	20.2	0	1	112	0.00	30.293 
22:05	25.7	25.7	25.7	79	20.1	0	0	---	0.00	30.293 
22:10	25.4	25.4	25.4	79	19.8	0	0	---	0.00	30.293 
22:15	25.1	25.1	25.1	79	19.5	0	0	---	0.00	30.295 
22:20	24.7	24.7	24.7	80	19.4	0	0	---	0.00	30.295 
22:25	24.7	24.7	24.7	81	19.7	0	0	---	0.00	30.295 
22:30	24.7	24.7	24.7	81	19.7	0	1	112	0.00	30.296 
22:35	24.8	24.8	24.8	82	20.1	0	2	112	0.00	30.296 
22:40	25.1	25.1	25.1	82	20.4	0	2	112	0.00	30.296 
22:45	25.3	25.3	25.3	82	20.6	0	2	112	0.00	30.288 
22:50	25.4	25.4	25.4	83	21.0	0	1	112	0.00	30.288 
22:55	25.7	25.7	25.7	83	21.3	1	3	112	0.00	30.288 
23:00	26.0	26.0	26.0	83	21.6	1	3	112	0.00	30.276 
23:05	26.0	26.0	26.0	82	21.3	0	2	112	0.00	30.276 
23:10	26.1	26.1	26.1	83	21.7	0	2	112	0.00	30.276 
23:15	26.1	26.1	26.1	82	21.4	0	2	112	0.00	30.274 
23:20	26.3	26.3	26.3	83	21.9	1	2	112	0.00	30.274 
23:25	26.3	26.3	26.3	83	21.9	1	4	112	0.00	30.274 
23:30	26.4	26.4	26.4	82	21.7	1	2	112	0.00	30.265 
23:35	26.3	26.3	26.3	82	21.6	1	3	112	0.00	30.265 
23:40	26.3	26.3	26.3	82	21.6	1	3	112	0.00	30.265 
23:45	26.3	26.3	26.3	83	21.9	1	2	112	0.00	30.254 
23:50	26.1	26.1	26.1	83	21.7	1	2	112	0.00	30.254 
23:55	26.1	26.1	26.1	83	21.7	1	3	112	0.00	30.254 

CoCoRaHS
IN-AL-39
A2 Web Hosting
Creative Commons License
GoDaddy
search engine by freefind advanced

loaded 2018-11-20 03:10:32 • last modified 2010-11-18 10:43:29
Privacy PolicyDisclaimer
• wx.awcolley.com is powered by PmWiki v.2002016 •
• all content (unless otherwise noted) © 2018 A W Colley